Time;durP1;ratioP1;P1;durP2;ratioP2;P2;SDS_P1;SDS_P2;PMS_P1;PMS_P2;Temp;Humidity;BMP_temperature;BMP_pressure;BME280_temperature;BME280_humidity;BME280_pressure;Samples;Min_cycle;Max_cycle;Signal;HPM_P1;HPM_P2
2021/05/20 00:00:57;;;;;;;1.30;0.85;;;12.60;99.90;;;;;;5112006;28;20125;-62
2021/05/20 00:03:23;;;;;;;1.98;1.00;;;12.60;99.90;;;;;;5112920;28;20075;-61
2021/05/20 00:05:48;;;;;;;1.30;0.70;;;12.60;99.90;;;;;;5113191;28;20024;-62
2021/05/20 00:08:14;;;;;;;3.55;0.40;;;12.60;99.90;;;;;;5111338;28;20089;-74
2021/05/20 00:10:40;;;;;;;1.02;0.30;;;12.60;99.90;;;;;;5111852;28;20042;-63
2021/05/20 00:13:06;;;;;;;1.30;0.40;;;12.60;99.90;;;;;;5111833;28;20019;-63
2021/05/20 00:15:31;;;;;;;0.75;0.38;;;12.60;99.90;;;;;;5111092;28;20031;-63
2021/05/20 00:17:57;;;;;;;1.77;0.40;;;12.50;99.90;;;;;;5111196;28;20488;-63
2021/05/20 00:20:23;;;;;;;0.55;0.30;;;12.40;99.90;;;;;;5112497;28;20030;-63
2021/05/20 00:22:48;;;;;;;0.70;0.20;;;12.40;99.90;;;;;;5113410;28;20072;-64
2021/05/20 00:25:14;;;;;;;1.20;0.20;;;12.40;99.90;;;;;;5112706;28;20028;-62
2021/05/20 00:27:40;;;;;;;1.30;0.30;;;12.30;99.90;;;;;;5113112;28;20050;-63
2021/05/20 00:30:07;;;;;;;1.80;0.57;;;12.30;99.90;;;;;;5112588;28;20024;-63
2021/05/20 00:32:33;;;;;;;3.05;0.50;;;12.30;99.90;;;;;;5110645;28;20027;-63
2021/05/20 00:34:58;;;;;;;1.45;0.40;;;12.30;99.90;;;;;;5112575;28;20448;-61
2021/05/20 00:37:24;;;;;;;3.88;0.50;;;12.30;99.90;;;;;;5111924;28;20055;-62
2021/05/20 00:39:49;;;;;;;1.88;0.60;;;12.10;99.90;;;;;;5112719;28;20031;-62
2021/05/20 00:42:15;;;;;;;1.83;0.50;;;12.00;99.90;;;;;;5112212;28;20028;-62
2021/05/20 00:45:03;;;;;;;1.58;0.75;;;12.10;99.90;;;;;;5112103;28;20457;-63
2021/05/20 00:47:31;;;;;;;3.25;0.90;;;11.90;99.90;;;;;;5110183;28;20080;-63
2021/05/20 00:49:57;;;;;;;1.60;0.63;;;12.10;99.90;;;;;;5111981;28;20027;-63
2021/05/20 00:52:23;;;;;;;1.55;0.55;;;12.10;99.90;;;;;;5111675;28;20452;-63
2021/05/20 00:54:55;;;;;;;1.73;0.30;;;12.00;99.90;;;;;;5112411;28;20020;-63
2021/05/20 00:57:21;;;;;;;;;;;12.00;99.90;;;;;;5110756;28;20020;-64
2021/05/20 00:59:48;;;;;;;0.50;0.40;;;12.10;99.90;;;;;;5112042;28;20336;-63
2021/05/20 01:02:14;;;;;;;0.80;0.40;;;12.20;99.90;;;;;;5112053;28;20020;-64
2021/05/20 01:04:40;;;;;;;1.63;0.77;;;12.20;99.90;;;;;;5110003;28;20114;-63
2021/05/20 01:07:06;;;;;;;1.65;0.40;;;12.30;99.90;;;;;;5110217;28;20365;-63
2021/05/20 01:09:35;;;;;;;1.88;0.52;;;12.30;99.90;;;;;;5109983;28;20401;-63
2021/05/20 01:12:01;;;;;;;1.25;0.52;;;12.40;99.90;;;;;;5112058;28;20024;-63
2021/05/20 01:14:27;;;;;;;0.60;0.40;;;12.40;99.90;;;;;;5109997;28;20099;-63
2021/05/20 01:16:52;;;;;;;1.08;0.60;;;12.40;99.90;;;;;;5111452;28;20150;-63
2021/05/20 01:19:18;;;;;;;0.52;0.22;;;12.40;99.90;;;;;;5111434;28;20046;-76
2021/05/20 01:21:44;;;;;;;2.42;0.40;;;12.40;99.90;;;;;;5109865;28;20445;-62
2021/05/20 01:24:13;;;;;;;1.08;0.30;;;12.50;99.90;;;;;;5111799;28;20084;-62
2021/05/20 01:26:39;;;;;;;1.30;0.40;;;12.30;99.90;;;;;;5110922;28;20704;-63
2021/05/20 01:29:06;;;;;;;0.65;0.20;;;12.40;99.90;;;;;;5112098;28;20082;-63
2021/05/20 01:31:33;;;;;;;1.67;0.95;;;12.50;99.90;;;;;;5110706;28;20031;-64
2021/05/20 01:33:59;;;;;;;1.70;0.40;;;12.40;99.90;;;;;;5109923;28;20028;-64
2021/05/20 01:36:29;;;;;;;0.50;0.32;;;12.40;99.90;;;;;;5109433;28;20343;-63
2021/05/20 01:39:03;;;;;;;0.63;0.40;;;12.40;99.90;;;;;;5110211;28;20023;-63
2021/05/20 01:41:28;;;;;;;1.00;0.47;;;12.40;99.90;;;;;;5110808;28;20027;-63
2021/05/20 01:43:54;;;;;;;1.30;0.20;;;12.40;99.90;;;;;;5111382;28;20024;-63
2021/05/20 01:46:20;;;;;;;0.68;0.40;;;12.40;99.90;;;;;;5111572;28;20028;-74
2021/05/20 01:48:48;;;;;;;0.57;0.30;;;12.40;99.90;;;;;;5111337;28;20100;-63
2021/05/20 01:51:21;;;;;;;3.55;0.40;;;12.40;99.90;;;;;;5109981;28;20034;-63
2021/05/20 01:53:50;;;;;;;1.58;0.30;;;12.40;99.90;;;;;;5111348;28;20102;-64
2021/05/20 01:56:18;;;;;;;2.78;0.60;;;12.30;99.90;;;;;;5111233;28;20026;-63
2021/05/20 01:58:44;;;;;;;1.30;0.30;;;12.30;99.90;;;;;;5109130;28;20050;-63
2021/05/20 02:01:10;;;;;;;1.55;0.25;;;12.30;99.90;;;;;;5109701;28;20063;-63
2021/05/20 02:03:37;;;;;;;0.43;0.25;;;12.20;99.90;;;;;;5108952;28;20028;-63
2021/05/20 02:06:04;;;;;;;1.00;0.40;;;12.20;99.90;;;;;;5109621;28;20031;-63
2021/05/20 02:08:31;;;;;;;0.82;0.40;;;12.10;99.90;;;;;;5110325;28;20023;-63
2021/05/20 02:10:57;;;;;;;1.40;0.30;;;12.10;99.90;;;;;;5109483;28;20027;-63
2021/05/20 02:13:23;;;;;;;1.65;0.40;;;12.20;99.90;;;;;;5110386;28;20375;-65
2021/05/20 02:15:49;;;;;;;1.30;0.32;;;12.20;99.90;;;;;;5109520;28;20028;-63
2021/05/20 02:18:15;;;;;;;1.35;0.50;;;12.10;99.90;;;;;;5110692;28;20467;-63
2021/05/20 02:20:41;;;;;;;0.90;0.50;;;12.00;99.90;;;;;;5110197;28;20043;-63
2021/05/20 02:23:07;;;;;;;1.27;0.30;;;12.20;99.90;;;;;;5110514;28;20023;-63
2021/05/20 02:25:33;;;;;;;0.65;0.30;;;12.20;99.90;;;;;;5109999;28;20028;-63
2021/05/20 02:27:59;;;;;;;0.88;0.30;;;12.20;99.90;;;;;;5110681;28;20031;-63
2021/05/20 02:30:25;;;;;;;1.75;0.40;;;12.20;99.90;;;;;;5108256;28;20067;-63
2021/05/20 02:32:51;;;;;;;0.88;0.30;;;12.30;99.90;;;;;;5110652;28;20464;-63
2021/05/20 02:35:17;;;;;;;1.00;0.30;;;12.30;99.90;;;;;;5108012;28;20035;-63
2021/05/20 02:37:43;;;;;;;1.73;0.47;;;12.30;99.90;;;;;;5109721;28;20609;-62
2021/05/20 02:40:11;;;;;;;1.23;0.65;;;12.30;99.90;;;;;;5110077;28;20334;-63
2021/05/20 02:42:37;;;;;;;0.60;0.30;;;12.40;99.90;;;;;;5109135;28;20534;-62
2021/05/20 02:45:08;;;;;;;1.98;0.63;;;12.40;99.90;;;;;;5102495;28;20016;-64
2021/05/20 02:47:35;;;;;;;0.47;0.25;;;12.30;99.90;;;;;;5089601;28;20025;-62
2021/05/20 02:50:01;;;;;;;3.40;0.35;;;12.30;99.90;;;;;;5089847;28;20055;-65
2021/05/20 02:52:26;;;;;;;0.95;0.30;;;12.30;99.90;;;;;;5089693;28;20064;-63
2021/05/20 02:54:52;;;;;;;1.17;0.30;;;12.30;99.90;;;;;;5089981;28;20128;-63
2021/05/20 02:57:18;;;;;;;0.40;0.10;;;12.30;99.90;;;;;;5088706;28;20173;-63
2021/05/20 02:59:43;;;;;;;1.38;0.35;;;12.30;99.90;;;;;;5087863;28;20240;-63
2021/05/20 03:02:10;;;;;;;2.17;0.50;;;12.30;99.90;;;;;;5088488;28;20150;-64
2021/05/20 03:04:37;;;;;;;1.58;0.30;;;12.20;99.90;;;;;;5089222;28;20032;-63
2021/05/20 03:07:04;;;;;;;1.05;0.50;;;12.20;99.90;;;;;;5088613;28;20024;-64
2021/05/20 03:09:30;;;;;;;2.33;0.68;;;12.30;99.90;;;;;;5088139;28;20028;-64
2021/05/20 03:11:59;;;;;;;0.77;0.40;;;12.30;99.90;;;;;;5089763;28;20036;-62
2021/05/20 03:14:26;;;;;;;1.00;0.50;;;12.30;99.90;;;;;;5089114;28;20097;-71
2021/05/20 03:16:52;;;;;;;0.40;0.20;;;12.30;99.90;;;;;;5088004;28;20071;-63
2021/05/20 03:19:18;;;;;;;1.63;0.38;;;12.10;99.90;;;;;;5089546;28;20036;-63
2021/05/20 03:21:44;;;;;;;2.60;0.30;;;12.10;99.90;;;;;;5088924;28;20124;-63
2021/05/20 03:24:10;;;;;;;1.35;0.60;;;12.10;99.90;;;;;;5089778;28;20040;-63
2021/05/20 03:26:35;;;;;;;3.67;0.93;;;12.10;99.90;;;;;;5087815;28;20074;-63
2021/05/20 03:29:01;;;;;;;1.60;0.70;;;12.10;99.90;;;;;;5088195;28;20484;-63
2021/05/20 03:31:27;;;;;;;4.13;0.88;;;12.10;99.90;;;;;;5087631;28;20035;-66
2021/05/20 03:33:53;;;;;;;2.08;0.82;;;12.20;99.90;;;;;;5088176;28;20135;-63
2021/05/20 03:36:18;;;;;;;0.70;0.50;;;12.20;99.90;;;;;;5089452;28;20028;-64
2021/05/20 03:38:44;;;;;;;1.30;0.70;;;12.20;99.90;;;;;;5089190;28;20480;-64
2021/05/20 03:41:10;;;;;;;1.33;0.50;;;12.20;99.90;;;;;;5089412;28;20464;-64
2021/05/20 03:43:36;;;;;;;0.93;0.60;;;12.20;99.90;;;;;;5087548;28;20036;-63
2021/05/20 03:46:03;;;;;;;1.30;0.75;;;12.20;99.90;;;;;;5091409;28;20028;-62
2021/05/20 03:48:29;;;;;;;2.22;1.00;;;12.20;99.90;;;;;;5093151;28;20030;-63
2021/05/20 03:50:59;;;;;;;1.20;0.80;;;12.10;99.90;;;;;;5091898;28;20032;-63
2021/05/20 03:53:29;;;;;;;0.75;0.50;;;12.20;99.90;;;;;;5092906;28;20093;-63
2021/05/20 03:55:56;;;;;;;2.80;0.87;;;12.10;99.90;;;;;;5093498;28;20101;-63
2021/05/20 03:58:22;;;;;;;2.88;1.30;;;12.10;99.90;;;;;;5092878;28;20082;-63
2021/05/20 04:00:48;;;;;;;1.45;1.20;;;12.20;99.90;;;;;;5091897;28;20031;-62
2021/05/20 04:03:23;;;;;;;1.25;1.13;;;12.20;99.90;;;;;;5092956;28;20469;-62
2021/05/20 04:05:56;;;;;;;4.38;1.42;;;12.20;99.90;;;;;;5090699;28;20039;-63
2021/05/20 04:08:22;;;;;;;3.17;1.30;;;12.20;99.90;;;;;;5092590;28;20414;-63
2021/05/20 04:10:49;;;;;;;2.53;1.40;;;12.10;99.90;;;;;;5090765;28;20270;-63
2021/05/20 04:13:30;;;;;;;2.50;1.65;;;12.10;99.90;;;;;;5091390;28;20042;-63
2021/05/20 04:15:55;;;;;;;3.10;1.35;;;12.10;99.90;;;;;;5092395;28;20104;-63
2021/05/20 04:18:21;;;;;;;2.08;1.40;;;12.20;99.90;;;;;;5090844;28;20067;-62
2021/05/20 04:20:48;;;;;;;1.67;1.38;;;12.20;99.90;;;;;;5092082;28;20036;-63
2021/05/20 04:23:14;;;;;;;2.22;1.48;;;12.20;99.90;;;;;;5091330;28;20028;-63
2021/05/20 04:25:40;;;;;;;2.58;1.70;;;12.30;99.90;;;;;;5090584;28;20481;-63
2021/05/20 04:28:06;;;;;;;3.58;1.58;;;12.20;99.90;;;;;;5091128;28;20028;-63
2021/05/20 04:30:31;;;;;;;5.03;1.70;;;12.10;99.90;;;;;;5091780;28;20542;-64
2021/05/20 04:32:57;;;;;;;2.63;1.83;;;12.20;99.90;;;;;;5092440;28;20047;-64
2021/05/20 04:35:23;;;;;;;3.88;2.03;;;12.20;99.90;;;;;;5092340;28;20111;-64
2021/05/20 04:37:48;;;;;;;2.78;1.95;;;12.10;99.90;;;;;;5089929;28;20025;-63
2021/05/20 04:40:15;;;;;;;2.30;1.98;;;12.10;99.90;;;;;;5090738;28;20035;-63
2021/05/20 04:42:40;;;;;;;2.85;2.35;;;12.10;99.90;;;;;;5090087;28;20031;-63
2021/05/20 04:45:06;;;;;;;4.93;2.88;;;12.10;99.90;;;;;;5092284;28;20323;-63
2021/05/20 04:47:32;;;;;;;3.15;2.42;;;12.10;99.90;;;;;;5091588;28;20036;-63
2021/05/20 04:49:58;;;;;;;5.57;3.20;;;12.10;99.90;;;;;;5092158;28;20134;-63
2021/05/20 04:52:24;;;;;;;2.90;2.40;;;12.20;99.90;;;;;;5090702;28;20114;-64
2021/05/20 04:54:49;;;;;;;5.10;2.60;;;12.20;99.90;;;;;;5091080;28;20103;-63
2021/05/20 04:57:15;;;;;;;7.13;3.05;;;12.10;99.90;;;;;;5090869;28;20138;-63
2021/05/20 04:59:41;;;;;;;4.30;3.13;;;12.20;99.90;;;;;;5090802;28;20024;-63
2021/05/20 05:02:07;;;;;;;5.90;3.53;;;12.20;99.90;;;;;;5090256;28;20032;-63
2021/05/20 05:04:32;;;;;;;8.60;3.50;;;12.30;99.90;;;;;;5090659;28;20016;-64
2021/05/20 05:06:58;;;;;;;6.82;3.92;;;12.30;99.90;;;;;;5090176;28;20051;-63
2021/05/20 05:09:24;;;;;;;6.43;3.58;;;12.30;99.90;;;;;;5091762;28;20329;-63
2021/05/20 05:11:49;;;;;;;6.10;3.65;;;12.40;99.90;;;;;;5089522;28;20031;-63
2021/05/20 05:14:15;;;;;;;6.55;4.10;;;12.40;99.90;;;;;;5090240;28;20096;-64
2021/05/20 05:16:41;;;;;;;6.32;4.40;;;12.30;99.90;;;;;;5088990;28;20036;-63
2021/05/20 05:19:07;;;;;;;6.68;5.00;;;12.40;99.90;;;;;;5090008;28;20028;-63
2021/05/20 05:21:32;;;;;;;7.85;5.53;;;12.30;99.90;;;;;;5089362;28;20047;-75
2021/05/20 05:23:58;;;;;;;6.10;4.70;;;12.40;99.90;;;;;;5091368;28;20031;-63
2021/05/20 05:26:24;;;;;;;9.32;5.70;;;12.30;99.90;;;;;;5091321;28;20020;-64
2021/05/20 05:28:49;;;;;;;6.88;5.45;;;12.30;99.90;;;;;;5092295;28;20025;-65
2021/05/20 05:31:20;;;;;;;9.13;5.82;;;12.30;99.90;;;;;;5110173;28;20028;-64
2021/05/20 05:33:46;;;;;;;8.13;5.40;;;12.20;99.90;;;;;;5108399;28;20023;-63
2021/05/20 05:36:12;;;;;;;8.50;5.53;;;12.20;99.90;;;;;;5108722;28;20368;-64
2021/05/20 05:38:38;;;;;;;6.68;5.20;;;12.40;99.90;;;;;;5108928;28;20031;-69
2021/05/20 05:41:05;;;;;;;7.53;5.88;;;12.40;99.90;;;;;;5107944;28;20031;-64
2021/05/20 05:43:30;;;;;;;10.57;5.88;;;12.30;99.90;;;;;;5108109;28;20046;-64
2021/05/20 05:45:57;;;;;;;7.85;6.20;;;12.40;99.90;;;;;;5108995;28;20203;-65
2021/05/20 05:48:23;;;;;;;8.02;5.88;;;12.40;99.90;;;;;;5107543;28;20028;-63
2021/05/20 05:50:50;;;;;;;8.05;6.32;;;12.40;99.90;;;;;;5109023;28;20093;-64
2021/05/20 05:53:16;;;;;;;8.60;6.68;;;12.50;99.90;;;;;;5108025;28;20062;-64
2021/05/20 05:55:42;;;;;;;16.88;7.60;;;12.70;99.90;;;;;;5108966;27;20425;-64
2021/05/20 05:58:08;;;;;;;8.10;5.97;;;12.80;99.90;;;;;;5108995;28;20038;-64
2021/05/20 06:00:34;;;;;;;10.40;7.25;;;12.90;99.90;;;;;;5106862;28;20051;-78
2021/05/20 06:03:00;;;;;;;8.43;5.93;;;13.00;99.90;;;;;;5107777;28;20063;-64
2021/05/20 06:05:25;;;;;;;8.20;6.72;;;13.00;99.90;;;;;;5109461;28;20020;-65
2021/05/20 06:07:51;;;;;;;7.65;6.90;;;13.00;99.90;;;;;;5106653;28;20433;-68
2021/05/20 06:10:17;;;;;;;8.80;7.72;;;13.00;99.90;;;;;;5105718;28;20110;-64
2021/05/20 06:12:43;;;;;;;9.48;7.28;;;13.00;99.90;;;;;;5106941;28;20031;-70
2021/05/20 06:15:09;;;;;;;10.18;8.18;;;13.10;99.90;;;;;;5108811;28;20020;-64
2021/05/20 06:17:38;;;;;;;12.20;8.15;;;13.00;99.90;;;;;;5106088;28;20167;-74
2021/05/20 06:20:08;;;;;;;11.85;8.27;;;13.10;99.90;;;;;;5105266;28;20465;-67
2021/05/20 06:22:35;;;;;;;9.73;8.57;;;13.10;99.90;;;;;;5106426;28;20166;-78
2021/05/20 06:25:02;;;;;;;12.93;9.10;;;13.10;99.90;;;;;;5108025;28;20023;-68
2021/05/20 06:27:28;;;;;;;10.55;8.35;;;13.10;99.90;;;;;;5107234;28;20047;-64
2021/05/20 06:29:55;;;;;;;14.10;8.63;;;13.30;99.90;;;;;;5105335;28;20421;-63
2021/05/20 06:32:20;;;;;;;11.38;8.27;;;13.30;99.90;;;;;;5107002;28;20106;-66
2021/05/20 06:34:47;;;;;;;11.05;8.50;;;13.40;99.90;;;;;;5106985;27;20470;-67
2021/05/20 06:37:12;;;;;;;14.98;8.45;;;13.40;99.90;;;;;;5106194;28;20031;-69
2021/05/20 06:39:39;;;;;;;10.65;8.45;;;13.40;99.90;;;;;;5104854;28;20085;-64
2021/05/20 06:42:08;;;;;;;11.15;8.75;;;13.50;99.90;;;;;;5107574;28;20084;-64
2021/05/20 06:44:34;;;;;;;12.20;9.38;;;13.40;99.90;;;;;;5104123;28;20032;-76
2021/05/20 06:47:00;;;;;;;10.20;8.80;;;13.40;99.90;;;;;;5107635;28;20032;-64
2021/05/20 06:49:26;;;;;;;11.13;9.15;;;13.40;99.90;;;;;;5104576;28;20497;-66
2021/05/20 06:51:52;;;;;;;14.25;9.15;;;13.40;99.90;;;;;;5105876;28;20035;-71
2021/05/20 06:54:17;;;;;;;11.50;9.60;;;13.40;99.90;;;;;;5108056;28;20413;-66
2021/05/20 06:56:47;;;;;;;12.95;9.38;;;13.50;99.90;;;;;;5107296;28;20527;-67
2021/05/20 07:01:57;;;;;;;14.10;9.30;;;13.40;99.90;;;;;;5108058;28;20088;-62
2021/05/20 07:04:23;;;;;;;12.02;9.65;;;13.50;99.90;;;;;;5105527;28;20115;-68
2021/05/20 07:06:49;;;;;;;11.95;8.88;;;13.50;99.90;;;;;;5105647;28;20016;-64
2021/05/20 07:09:15;;;;;;;12.07;8.93;;;13.80;99.90;;;;;;5107940;28;20043;-66
2021/05/20 07:11:41;;;;;;;10.60;8.82;;;14.00;99.90;;;;;;5105552;28;20376;-63
2021/05/20 07:14:07;;;;;;;12.90;8.98;;;14.20;99.90;;;;;;5107776;28;20110;-64
2021/05/20 07:16:33;;;;;;;17.35;9.55;;;14.30;99.90;;;;;;5107501;28;20144;-64
2021/05/20 07:18:59;;;;;;;11.52;8.93;;;14.40;99.90;;;;;;5104339;28;20506;-64
2021/05/20 07:21:25;;;;;;;9.20;7.80;;;14.80;99.90;;;;;;5109722;28;20092;-69
2021/05/20 07:23:51;;;;;;;10.18;7.80;;;14.90;99.90;;;;;;5111527;28;20107;-66
2021/05/20 07:26:17;;;;;;;9.98;8.00;;;15.00;99.90;;;;;;5112022;27;20149;-65
2021/05/20 07:28:42;;;;;;;10.00;7.53;;;15.10;99.90;;;;;;5111432;28;20119;-70
2021/05/20 07:31:08;;;;;;;11.23;8.63;;;15.40;99.90;;;;;;5110402;28;20557;-64
2021/05/20 07:33:37;;;;;;;10.57;8.77;;;15.50;99.90;;;;;;5108851;28;20468;-79
2021/05/20 07:36:03;;;;;;;15.32;8.15;;;15.60;99.90;;;;;;5110754;28;20027;-65
2021/05/20 07:38:29;;;;;;;8.65;7.53;;;15.80;99.90;;;;;;5110421;28;20019;-65
2021/05/20 07:40:54;;;;;;;9.25;7.60;;;15.80;99.90;;;;;;5110197;28;20027;-64
2021/05/20 07:43:21;;;;;;;9.77;7.68;;;15.70;99.90;;;;;;5112228;28;20035;-65
2021/05/20 07:45:48;;;;;;;14.00;6.75;;;15.70;99.90;;;;;;5112001;28;20028;-64
2021/05/20 07:48:14;;;;;;;10.20;7.75;;;15.80;99.90;;;;;;5111625;28;20031;-65
2021/05/20 07:50:40;;;;;;;11.20;7.38;;;15.60;99.90;;;;;;5109973;28;20031;-65
2021/05/20 07:53:05;;;;;;;8.77;7.35;;;15.40;99.90;;;;;;5110589;28;20024;-67
2021/05/20 07:55:31;;;;;;;10.50;7.43;;;15.30;99.90;;;;;;5109388;28;20521;-66
2021/05/20 07:57:59;;;;;;;9.85;7.72;;;15.40;99.90;;;;;;5109138;28;20547;-63
2021/05/20 08:00:24;;;;;;;8.50;6.93;;;15.90;99.80;;;;;;5111788;28;20043;-66
2021/05/20 08:03:03;;;;;;;7.50;6.70;;;16.40;98.80;;;;;;5109554;28;20035;-64
2021/05/20 08:10:58;;;;;;;8.20;6.82;;;17.20;97.00;;;;;;5111239;28;20430;-65
2021/05/20 08:13:24;;;;;;;8.68;6.80;;;17.50;96.90;;;;;;5110726;28;20384;-66
2021/05/20 08:15:49;;;;;;;7.32;6.47;;;17.30;95.70;;;;;;5109805;28;20023;-64
2021/05/20 08:18:16;;;;;;;8.95;6.32;;;17.30;95.20;;;;;;5108671;28;20519;-65
2021/05/20 08:20:42;;;;;;;6.57;5.38;;;17.80;94.90;;;;;;5110696;28;20497;-64
2021/05/20 08:23:08;;;;;;;8.52;5.60;;;17.50;93.40;;;;;;5110019;28;20041;-66
2021/05/20 08:25:34;;;;;;;6.93;5.88;;;17.80;94.20;;;;;;5110989;28;20377;-65
2021/05/20 08:27:59;;;;;;;5.72;5.13;;;17.80;93.70;;;;;;5109556;28;20449;-65
2021/05/20 08:30:25;;;;;;;7.18;5.30;;;18.40;93.60;;;;;;5111246;28;20087;-66
2021/05/20 08:32:52;;;;;;;5.80;5.20;;;17.90;93.40;;;;;;5106807;28;20027;-65
2021/05/20 08:35:18;;;;;;;5.45;4.95;;;17.70;92.60;;;;;;5111041;28;20055;-67
2021/05/20 08:37:43;;;;;;;9.10;4.72;;;17.50;93.30;;;;;;5109999;28;20457;-64
2021/05/20 08:40:11;;;;;;;8.93;5.20;;;17.10;93.10;;;;;;5110512;28;20047;-65
2021/05/20 08:42:38;;;;;;;5.65;4.90;;;17.00;93.80;;;;;;5109984;28;20039;-76
2021/05/20 08:45:16;;;;;;;5.25;4.75;;;17.00;93.90;;;;;;5111234;28;20110;-65
2021/05/20 08:47:46;;;;;;;5.75;4.40;;;17.10;94.20;;;;;;5108020;28;20178;-65
2021/05/20 08:50:14;;;;;;;4.33;3.93;;;17.00;94.40;;;;;;5109207;28;20473;-66
2021/05/20 08:52:41;;;;;;;4.95;4.40;;;17.60;93.80;;;;;;5107980;28;20055;-78
2021/05/20 08:55:13;;;;;;;4.90;4.15;;;18.20;92.40;;;;;;5110315;28;20016;-65
2021/05/20 08:57:39;;;;;;;7.07;4.40;;;18.00;91.10;;;;;;5111057;28;20138;-78
2021/05/20 09:00:10;;;;;;;6.22;4.95;;;17.70;91.10;;;;;;5110604;28;20135;-69
2021/05/20 09:02:36;;;;;;;6.53;4.38;;;17.50;91.90;;;;;;5108564;28;20093;-78
2021/05/20 09:05:18;;;;;;;8.00;4.63;;;17.80;91.90;;;;;;5110227;28;20019;-65
2021/05/20 09:07:59;;;;;;;4.65;3.92;;;18.30;90.80;;;;;;5109762;28;20027;-66
2021/05/20 09:10:30;;;;;;;5.72;3.25;;;18.10;89.90;;;;;;5108681;28;20035;-72
2021/05/20 09:13:13;;;;;;;5.80;4.57;;;17.90;90.30;;;;;;5107198;28;20532;-69
2021/05/20 09:15:41;;;;;;;19.85;4.55;;;18.10;90.00;;;;;;5109931;28;20183;-75
2021/05/20 09:18:07;;;;;;;7.28;4.78;;;18.60;90.30;;;;;;5107442;28;20441;-65
2021/05/20 09:20:36;;;;;;;4.50;3.47;;;18.60;90.10;;;;;;5108066;28;20122;-65
2021/05/20 09:23:07;;;;;;;6.82;4.93;;;18.40;90.10;;;;;;5108818;28;20061;-56
2021/05/20 09:25:34;;;;;;;;;;;18.10;90.80;;;;;;5110098;28;20024;-54
2021/05/20 09:28:00;;;;;;;4.43;3.05;;;18.80;92.40;;;;;;5108125;28;19903;-51
2021/05/20 09:30:28;;;;;;;6.10;5.30;;;18.70;91.70;;;;;;5107629;28;20123;-52
2021/05/20 09:33:08;;;;;;;7.10;3.88;;;18.40;90.60;;;;;;5107969;28;20127;-52
2021/05/20 09:35:45;;;;;;;3.42;3.08;;;18.70;92.40;;;;;;5107493;28;20023;-53
2021/05/20 09:38:20;;;;;;;3.72;3.28;;;19.30;91.50;;;;;;5109364;28;20509;-51
2021/05/20 09:40:46;;;;;;;5.72;3.20;;;19.30;91.90;;;;;;5107160;28;20032;-53
2021/05/20 09:43:18;;;;;;;4.20;3.72;;;19.40;91.70;;;;;;5109257;28;20023;-53
2021/05/20 09:45:46;;;;;;;4.63;3.15;;;19.40;89.30;;;;;;5108760;28;20031;-57
2021/05/20 09:48:13;;;;;;;5.95;4.03;;;19.00;91.10;;;;;;5108136;28;20084;-53
2021/05/20 09:50:45;;;;;;;3.60;3.30;;;18.90;91.50;;;;;;5106814;28;20326;-65
2021/05/20 09:53:16;;;;;;;4.68;3.17;;;18.70;92.10;;;;;;5107851;28;20039;-52
2021/05/20 09:55:47;;;;;;;5.97;4.03;;;18.60;92.50;;;;;;5108373;28;20028;-54
2021/05/20 09:58:14;;;;;;;8.70;5.45;;;18.40;91.20;;;;;;5107168;28;20103;-52
2021/05/20 10:00:40;;;;;;;5.45;4.80;;;18.40;90.40;;;;;;5108106;28;20043;-53
2021/05/20 10:03:11;;;;;;;5.40;4.72;;;18.30;90.80;;;;;;5106807;28;20047;-55
2021/05/20 10:05:38;;;;;;;;;;;18.60;90.30;;;;;;5109145;28;20024;-64
2021/05/20 10:08:09;;;;;;;8.73;5.13;;;18.70;89.00;;;;;;5108760;28;19904;-51
2021/05/20 10:10:37;;;;;;;;;;;18.60;89.30;;;;;;5109209;28;20035;-51
2021/05/20 10:13:07;;;;;;;5.57;4.03;;;18.80;89.00;;;;;;5108433;28;19904;-50
2021/05/20 10:15:34;;;;;;;5.60;4.65;;;19.30;88.90;;;;;;5108738;28;20032;-52
2021/05/20 10:18:09;;;;;;;4.78;4.38;;;18.50;87.80;;;;;;5105514;28;20052;-51
2021/05/20 10:20:36;;;;;;;6.13;4.63;;;18.00;89.30;;;;;;5107923;28;20050;-53
2021/05/20 10:23:10;;;;;;;5.03;4.30;;;17.90;90.20;;;;;;5106930;28;20063;-61
2021/05/20 10:25:37;;;;;;;8.63;5.47;;;18.20;90.40;;;;;;5107592;28;20024;-54
2021/05/20 10:28:04;;;;;;;4.40;4.00;;;18.50;88.60;;;;;;5108027;28;20434;-53
2021/05/20 10:30:31;;;;;;;4.93;4.43;;;18.30;88.40;;;;;;5106853;28;20058;-52
2021/05/20 10:32:58;;;;;;;5.07;4.03;;;18.40;88.70;;;;;;5104996;28;20127;-51
2021/05/20 10:35:45;;;;;;;4.75;4.35;;;18.80;89.70;;;;;;5107829;28;20039;-54
2021/05/20 10:38:15;;;;;;;4.63;4.07;;;19.20;84.80;;;;;;5107363;28;20122;-52
2021/05/20 10:40:41;;;;;;;8.23;4.75;;;19.40;85.20;;;;;;5106170;28;20042;-62
2021/05/20 10:43:16;;;;;;;4.28;3.60;;;19.60;84.60;;;;;;5107035;28;20023;-52
2021/05/20 10:46:19;;;;;;;4.10;3.58;;;19.60;85.80;;;;;;5106651;28;20461;-56
2021/05/20 10:48:48;;;;;;;4.47;3.15;;;19.50;86.70;;;;;;5027632;28;20911;-65
2021/05/20 10:51:16;;;;;;;14.50;7.38;;;19.20;83.90;;;;;;5092084;28;20084;-66
2021/05/20 10:53:46;;;;;;;20.80;11.25;;;19.80;84.80;;;;;;5107665;28;20031;-67
2021/05/20 10:56:15;;;;;;;60.50;22.95;;;20.30;83.70;;;;;;5106971;28;20027;-67
2021/05/20 10:58:47;;;;;;;32.00;15.27;;;20.10;81.10;;;;;;5107305;28;20524;-75
2021/05/20 11:01:23;;;;;;;13.60;7.60;;;20.20;80.50;;;;;;5107901;28;20586;-67
2021/05/20 11:03:50;;;;;;;38.03;13.73;;;20.10;78.00;;;;;;5105892;28;20027;-69
2021/05/20 11:06:18;;;;;;;9.80;5.88;;;20.50;79.00;;;;;;5106368;28;20222;-68
2021/05/20 11:08:46;;;;;;;7.07;3.58;;;20.90;87.20;;;;;;5107579;28;20329;-67
2021/05/20 11:11:22;;;;;;;5.28;3.83;;;20.80;86.60;;;;;;5106159;28;20136;-66
2021/05/20 11:13:48;;;;;;;4.57;3.28;;;20.80;75.90;;;;;;5105983;28;20053;-68
2021/05/20 11:16:36;;;;;;;5.32;3.85;;;20.40;76.10;;;;;;5106377;28;20024;-67
2021/05/20 11:19:24;;;;;;;3.72;3.15;;;19.90;77.70;;;;;;5109950;28;20039;-67
2021/05/20 11:21:55;;;;;;;7.65;3.72;;;19.70;78.80;;;;;;5109607;28;20114;-66
2021/05/20 11:24:22;;;;;;;5.15;3.25;;;20.60;76.60;;;;;;5109065;28;20361;-67
2021/05/20 11:26:52;;;;;;;3.97;3.65;;;20.40;75.20;;;;;;5106280;28;20047;-70
2021/05/20 11:29:22;;;;;;;3.97;2.88;;;20.80;76.50;;;;;;5109110;28;20085;-67
2021/05/20 11:31:50;;;;;;;6.13;2.70;;;20.60;74.80;;;;;;5107190;28;20055;-67
2021/05/20 11:36:45;;;;;;;7.03;3.38;;;21.10;79.20;;;;;;5108627;28;20480;-66
2021/05/20 11:39:20;;;;;;;3.03;2.60;;;21.10;79.20;;;;;;5107063;28;20480;-67
2021/05/20 11:41:47;;;;;;;4.63;2.30;;;20.90;79.10;;;;;;5096993;28;20518;-68
2021/05/20 11:44:14;;;;;;;5.32;2.42;;;20.70;79.40;;;;;;5107281;28;20146;-65
2021/05/20 11:46:43;;;;;;;3.53;1.85;;;21.20;78.30;;;;;;5104009;28;20031;-70
2021/05/20 11:49:23;;;;;;;1.85;1.70;;;21.00;75.60;;;;;;5103432;28;20019;-66
2021/05/20 11:51:53;;;;;;;2.00;1.63;;;21.00;73.80;;;;;;5106348;28;20076;-66
2021/05/20 11:54:22;;;;;;;2.15;1.42;;;21.50;75.10;;;;;;5088713;28;20051;-67
2021/05/20 11:56:52;;;;;;;5.53;1.67;;;21.30;79.90;;;;;;5105730;28;20050;-67
2021/05/20 11:59:23;;;;;;;2.75;1.95;;;22.10;82.40;;;;;;5106318;28;20322;-65
2021/05/20 12:01:49;;;;;;;4.00;1.73;;;22.00;79.90;;;;;;5104626;28;20036;-67
2021/05/20 12:04:16;;;;;;;7.75;2.00;;;21.90;78.00;;;;;;5107251;28;20406;-66
2021/05/20 12:06:49;;;;;;;3.55;2.10;;;22.40;75.90;;;;;;5108358;28;20024;-67
2021/05/20 12:09:16;;;;;;;4.72;1.52;;;22.80;73.30;;;;;;5109722;28;20031;-67
2021/05/20 12:11:42;;;;;;;8.32;1.48;;;23.00;71.40;;;;;;5111647;28;20032;-74
2021/05/20 12:14:32;;;;;;;2.78;2.05;;;23.10;70.10;;;;;;5112338;28;20031;-66
2021/05/20 12:17:13;;;;;;;4.10;1.73;;;22.90;67.10;;;;;;5109199;28;20075;-66
2021/05/20 12:19:46;;;;;;;4.88;1.67;;;22.60;67.60;;;;;;5112177;28;20023;-71
2021/05/20 12:22:12;;;;;;;2.85;2.08;;;22.00;65.90;;;;;;5110007;28;20110;-65
2021/05/20 12:24:42;;;;;;;3.63;1.50;;;21.30;67.20;;;;;;5111754;28;20028;-66
2021/05/20 12:27:18;;;;;;;4.88;1.52;;;21.20;68.90;;;;;;5110840;28;20104;-67
2021/05/20 12:29:47;;;;;;;5.20;1.48;;;20.60;69.20;;;;;;5106680;28;20123;-67
2021/05/20 12:32:40;;;;;;;1.70;1.40;;;20.40;70.70;;;;;;5110258;28;20046;-68
2021/05/20 12:35:06;;;;;;;2.78;1.67;;;20.80;69.20;;;;;;5109933;28;20027;-66
2021/05/20 12:37:51;;;;;;;5.32;1.08;;;20.80;67.60;;;;;;5108678;28;20047;-65
2021/05/20 12:40:32;;;;;;;2.10;1.42;;;20.80;68.20;;;;;;5108443;28;20035;-66
2021/05/20 12:43:04;;;;;;;1.65;1.38;;;20.30;68.60;;;;;;5109784;28;20030;-69
2021/05/20 12:45:32;;;;;;;3.30;1.30;;;20.00;70.70;;;;;;5109900;28;20030;-69
2021/05/20 12:47:58;;;;;;;2.15;1.10;;;18.90;72.30;;;;;;5109449;28;20404;-68
2021/05/20 12:50:30;;;;;;;2.35;1.35;;;19.30;71.80;;;;;;5110139;28;20032;-65
2021/05/20 12:53:00;;;;;;;2.35;1.38;;;19.40;69.60;;;;;;5110588;28;20015;-65
2021/05/20 12:55:34;;;;;;;2.17;1.00;;;19.50;70.70;;;;;;5110575;28;20461;-65
2021/05/20 12:58:01;;;;;;;4.20;1.40;;;19.30;71.90;;;;;;5106282;28;20583;-66
2021/05/20 13:00:29;;;;;;;1.50;1.30;;;19.30;73.60;;;;;;5107968;28;20028;-68